LFBHLFRN

Guest
Details From LFBH - La Rochelle Laleu
To LFRN - Rennes St Jacques
Flight Number -
Tags generated
Created
Modified
Stats Distance 116 nm / 214 km
Max Altitude 5,700 ft / 1,737 m
Waypoints 3
Social Downloads 3
Likes 0
Share VATSIM

Download

Looking for another format? Having issues loading an existing format? Contact us
Advertisement - Login to hide

Notes

Basic altitude profile: - Ascent Rate: 2500ft/min - Ascent Speed: 250kts - Cruise Altitude: 35000ft - Cruise Speed: 420kts - Descent Rate: 1500ft/min - Descent Speed: 250kts

Route

LFBH REN27 LFRN

ID Type Via Altitude Latitude Longitude Leg Dist Tot Dist Heading (true) Name
O LFBH APT - 0 ft / 0 m 46.17924˚ -1.19641˚ - 0 nm - La Rochelle Laleu
REN27 FIX - 5,700 ft / 1,737 m 47.62806˚ -1.67528˚ 89 nm 89 nm 347° / 347° -
O LFRN APT - 0 ft / 0 m 48.06941˚ -1.73459˚ 26 nm 115 nm 355° / 355° Rennes St Jacques

Altitude Profile

Advertisement - Login to hide

LFBH

Details ICAO LFBH (LRH)
Name La Rochelle Laleu
Region France
Timezone Europe/Paris (UTC+1.0)
Stats Elevation 74 ft / 23 m (AMSL)
Location 46.179245° -1.196410°
Runways 1
Magnetic Variation 0.303° W

METAR

LFBH 120830Z AUTO 16006KT CAVOK 04/03 Q1013

Decode

TAF

TAF AMD LFBH 120612Z 1206/1306 CNL

Decode

Departure Runways

ID Width Length Bearing (true) Bearing (mag) Surface Threshold Offset Overrun Length
10 148 ft / 45 m 7,383 ft / 2,250 m 92.43° 92.73° Asphalt 1,033 ft / 315 m 0 ft / 0 m
28 148 ft / 45 m 7,383 ft / 2,250 m 272.45° 272.75° Asphalt 1,532 ft / 467 m 0 ft / 0 m

LFRN

Details ICAO LFRN (RNS)
Name Rennes St Jacques
Region France
Timezone Europe/Paris (UTC+1.0)
Stats Elevation 124 ft / 38 m (AMSL)
Location 48.069410° -1.734587°
Runways 2
Magnetic Variation 0.634° W

METAR

LFRN 120830Z AUTO 20004KT CAVOK M00/M01 Q1011 NOSIG

Decode

TAF

TAF TAF LFRN 120500Z 1206/1306 24005KT 9999 SCT030 BECMG 1220/1222 18010KT BECMG 1223/1301 5000 RA BECMG 1301/1303 BKN010 TEMPO 1302/1305 22015G25KT 2000 BKN003 BECMG 1304/1306 25010KT 9999 NSW SCT020

Decode

Destination Runways

ID Width Length Bearing (true) Bearing (mag) Surface Threshold Offset Overrun Length
10 148 ft / 45 m 6,895 ft / 2,102 m 100.76° 101.39° Asphalt 230 ft / 70 m 0 ft / 0 m
14 98 ft / 30 m 2,785 ft / 849 m 142.19° 142.82° Asphalt 0 ft / 0 m 0 ft / 0 m
28 148 ft / 45 m 6,895 ft / 2,102 m 280.78° 281.41° Asphalt 0 ft / 0 m 0 ft / 0 m
32 98 ft / 30 m 2,785 ft / 849 m 322.20° 322.83° Asphalt 0 ft / 0 m 0 ft / 0 m

Approach Navaids

Runway Type Ident Frequency Range Bearing (true) Bearing (mag) Slope Elevation
28 Localiser RS 110.10 MHz 18 nm / 33 km 280.72° 281.35° - 124 ft / 38 m (AMSL)
28 Glidescope RS 110.10 MHz 10 nm / 19 km 280.77° 281.40° 3.00° 124 ft / 38 m (AMSL)
28 DME RS 110.10 MHz 18 nm / 33 km - - - 174 ft / 53 m (AMSL)

Popular Alternatives